sensor_id;sensor_type;location;lat;lon;timestamp;temperature;humidity
3408;DHT22;1717;50.240;8.406;2022-12-15T00:02:22;-1.20;99.90
3408;DHT22;1717;50.240;8.406;2022-12-15T00:05:08;-1.10;99.90
3408;DHT22;1717;50.240;8.406;2022-12-15T00:07:52;-1.10;99.90
3408;DHT22;1717;50.240;8.406;2022-12-15T00:10:37;-1.00;99.90
3408;DHT22;1717;50.240;8.406;2022-12-15T00:13:22;-0.90;99.90
3408;DHT22;1717;50.240;8.406;2022-12-15T00:16:06;-0.90;99.90
3408;DHT22;1717;50.240;8.406;2022-12-15T00:18:50;-1.00;99.90
3408;DHT22;1717;50.240;8.406;2022-12-15T00:21:36;-0.80;99.90
3408;DHT22;1717;50.240;8.406;2022-12-15T00:24:20;-0.80;99.90
3408;DHT22;1717;50.240;8.406;2022-12-15T00:27:05;-0.70;99.90
3408;DHT22;1717;50.240;8.406;2022-12-15T00:29:49;-0.70;99.90
3408;DHT22;1717;50.240;8.406;2022-12-15T00:32:34;-0.60;99.90
3408;DHT22;1717;50.240;8.406;2022-12-15T00:35:18;-0.70;99.90
3408;DHT22;1717;50.240;8.406;2022-12-15T00:38:08;-0.60;99.90
3408;DHT22;1717;50.240;8.406;2022-12-15T00:40:53;-0.70;99.90
3408;DHT22;1717;50.240;8.406;2022-12-15T00:43:23;-0.60;99.90
3408;DHT22;1717;50.240;8.406;2022-12-15T00:45:50;-0.70;99.90
3408;DHT22;1717;50.240;8.406;2022-12-15T00:48:35;-0.60;99.90
3408;DHT22;1717;50.240;8.406;2022-12-15T00:51:01;-0.60;99.90
3408;DHT22;1717;50.240;8.406;2022-12-15T00:53:30;-0.60;99.90
3408;DHT22;1717;50.240;8.406;2022-12-15T00:56:14;-0.70;99.90
3408;DHT22;1717;50.240;8.406;2022-12-15T00:58:59;-0.60;99.90
3408;DHT22;1717;50.240;8.406;2022-12-15T01:01:43;-0.60;99.90
3408;DHT22;1717;50.240;8.406;2022-12-15T01:04:27;-0.60;99.90
3408;DHT22;1717;50.240;8.406;2022-12-15T01:07:12;-0.60;99.90
3408;DHT22;1717;50.240;8.406;2022-12-15T01:09:58;-0.50;99.90
3408;DHT22;1717;50.240;8.406;2022-12-15T01:12:42;-0.50;99.90
3408;DHT22;1717;50.240;8.406;2022-12-15T01:15:27;-0.50;99.90
3408;DHT22;1717;50.240;8.406;2022-12-15T01:18:11;-0.40;99.90
3408;DHT22;1717;50.240;8.406;2022-12-15T01:20:56;-0.40;99.90
3408;DHT22;1717;50.240;8.406;2022-12-15T01:23:24;-0.40;99.90
3408;DHT22;1717;50.240;8.406;2022-12-15T01:25:52;-0.30;99.90
3408;DHT22;1717;50.240;8.406;2022-12-15T01:28:20;-0.30;99.90
3408;DHT22;1717;50.240;8.406;2022-12-15T01:30:47;-0.30;99.90
3408;DHT22;1717;50.240;8.406;2022-12-15T01:33:15;-0.20;99.90
3408;DHT22;1717;50.240;8.406;2022-12-15T01:35:42;-0.30;99.90
3408;DHT22;1717;50.240;8.406;2022-12-15T01:38:09;-0.30;99.90
3408;DHT22;1717;50.240;8.406;2022-12-15T01:40:37;-0.30;99.90
3408;DHT22;1717;50.240;8.406;2022-12-15T01:43:15;-0.30;99.90
3408;DHT22;1717;50.240;8.406;2022-12-15T01:45:54;-0.20;99.90
3408;DHT22;1717;50.240;8.406;2022-12-15T01:48:28;-0.20;99.90
3408;DHT22;1717;50.240;8.406;2022-12-15T01:51:06;-0.20;99.90
3408;DHT22;1717;50.240;8.406;2022-12-15T01:53:38;-0.20;99.90
3408;DHT22;1717;50.240;8.406;2022-12-15T01:56:07;-0.20;99.90
3408;DHT22;1717;50.240;8.406;2022-12-15T01:58:37;-0.20;99.90
3408;DHT22;1717;50.240;8.406;2022-12-15T02:01:07;-0.30;99.90
3408;DHT22;1717;50.240;8.406;2022-12-15T02:03:35;-0.30;99.90
3408;DHT22;1717;50.240;8.406;2022-12-15T02:06:02;-0.30;99.90
3408;DHT22;1717;50.240;8.406;2022-12-15T02:08:30;-0.20;99.90
3408;DHT22;1717;50.240;8.406;2022-12-15T02:11:10;-0.30;99.90
3408;DHT22;1717;50.240;8.406;2022-12-15T02:13:47;-0.30;99.90
3408;DHT22;1717;50.240;8.406;2022-12-15T02:16:22;-0.30;99.90
3408;DHT22;1717;50.240;8.406;2022-12-15T02:18:58;-0.20;99.90
3408;DHT22;1717;50.240;8.406;2022-12-15T02:21:34;-0.20;99.90
3408;DHT22;1717;50.240;8.406;2022-12-15T02:27:42;-0.20;99.90
3408;DHT22;1717;50.240;8.406;2022-12-15T02:30:33;-0.10;99.90
3408;DHT22;1717;50.240;8.406;2022-12-15T02:33:09;-0.10;99.90
3408;DHT22;1717;50.240;8.406;2022-12-15T02:35:46;-0.10;99.90
3408;DHT22;1717;50.240;8.406;2022-12-15T02:38:27;-0.10;99.90
3408;DHT22;1717;50.240;8.406;2022-12-15T02:40:57;-0.20;99.90
3408;DHT22;1717;50.240;8.406;2022-12-15T02:43:24;-0.10;99.90
3408;DHT22;1717;50.240;8.406;2022-12-15T02:45:56;-0.20;99.90
3408;DHT22;1717;50.240;8.406;2022-12-15T02:48:33;-0.20;99.90
3408;DHT22;1717;50.240;8.406;2022-12-15T02:51:14;-0.20;99.90
3408;DHT22;1717;50.240;8.406;2022-12-15T02:56:39;-0.20;99.90
3408;DHT22;1717;50.240;8.406;2022-12-15T02:59:09;-0.20;99.90
3408;DHT22;1717;50.240;8.406;2022-12-15T03:01:42;-0.20;99.90
3408;DHT22;1717;50.240;8.406;2022-12-15T03:04:12;-0.20;99.90
3408;DHT22;1717;50.240;8.406;2022-12-15T03:06:39;-0.20;99.90
3408;DHT22;1717;50.240;8.406;2022-12-15T03:09:06;-0.20;99.90
3408;DHT22;1717;50.240;8.406;2022-12-15T03:11:33;-0.20;99.90
3408;DHT22;1717;50.240;8.406;2022-12-15T03:14:01;-0.10;99.90
3408;DHT22;1717;50.240;8.406;2022-12-15T03:16:28;-0.20;99.90
3408;DHT22;1717;50.240;8.406;2022-12-15T03:18:56;-0.20;99.90
3408;DHT22;1717;50.240;8.406;2022-12-15T03:21:23;-0.20;99.90
3408;DHT22;1717;50.240;8.406;2022-12-15T03:23:50;-0.20;99.90
3408;DHT22;1717;50.240;8.406;2022-12-15T03:26:17;-0.20;99.90
3408;DHT22;1717;50.240;8.406;2022-12-15T03:28:43;-0.20;99.90
3408;DHT22;1717;50.240;8.406;2022-12-15T03:31:10;-0.20;99.90
3408;DHT22;1717;50.240;8.406;2022-12-15T03:33:37;-0.20;99.90
3408;DHT22;1717;50.240;8.406;2022-12-15T03:36:06;-0.20;99.90
3408;DHT22;1717;50.240;8.406;2022-12-15T03:38:33;-0.30;99.90
3408;DHT22;1717;50.240;8.406;2022-12-15T03:40:59;-0.30;99.90
3408;DHT22;1717;50.240;8.406;2022-12-15T03:43:26;-0.30;99.90
3408;DHT22;1717;50.240;8.406;2022-12-15T03:45:53;-0.30;99.90
3408;DHT22;1717;50.240;8.406;2022-12-15T03:48:20;-0.30;99.90
3408;DHT22;1717;50.240;8.406;2022-12-15T03:50:47;-0.30;99.90
3408;DHT22;1717;50.240;8.406;2022-12-15T03:53:16;-0.30;99.90
3408;DHT22;1717;50.240;8.406;2022-12-15T03:55:42;-0.30;99.90
3408;DHT22;1717;50.240;8.406;2022-12-15T03:58:09;-0.30;99.90
3408;DHT22;1717;50.240;8.406;2022-12-15T04:00:36;-0.40;99.90
3408;DHT22;1717;50.240;8.406;2022-12-15T04:03:03;-0.30;99.90
3408;DHT22;1717;50.240;8.406;2022-12-15T04:05:32;-0.40;99.90
3408;DHT22;1717;50.240;8.406;2022-12-15T04:08:00;-0.40;99.90
3408;DHT22;1717;50.240;8.406;2022-12-15T04:10:30;-0.40;99.90
3408;DHT22;1717;50.240;8.406;2022-12-15T04:12:58;-0.40;99.90
3408;DHT22;1717;50.240;8.406;2022-12-15T04:15:25;-0.40;99.90
3408;DHT22;1717;50.240;8.406;2022-12-15T04:17:52;-0.50;99.90
3408;DHT22;1717;50.240;8.406;2022-12-15T04:20:20;-0.40;99.90
3408;DHT22;1717;50.240;8.406;2022-12-15T04:22:50;-0.40;99.90
3408;DHT22;1717;50.240;8.406;2022-12-15T04:25:20;-0.40;99.90
3408;DHT22;1717;50.240;8.406;2022-12-15T04:28:07;-0.50;99.90
3408;DHT22;1717;50.240;8.406;2022-12-15T04:30:53;-0.50;99.90
3408;DHT22;1717;50.240;8.406;2022-12-15T04:33:41;-0.50;99.90
3408;DHT22;1717;50.240;8.406;2022-12-15T04:36:28;-0.50;99.90
3408;DHT22;1717;50.240;8.406;2022-12-15T04:39:13;-0.50;99.90
3408;DHT22;1717;50.240;8.406;2022-12-15T04:41:59;-0.50;99.90
3408;DHT22;1717;50.240;8.406;2022-12-15T04:44:46;-0.60;99.90
3408;DHT22;1717;50.240;8.406;2022-12-15T04:47:30;-0.60;99.90
3408;DHT22;1717;50.240;8.406;2022-12-15T04:50:15;-0.60;99.90
3408;DHT22;1717;50.240;8.406;2022-12-15T04:53:07;-0.70;99.90
3408;DHT22;1717;50.240;8.406;2022-12-15T04:55:51;-0.60;99.90
3408;DHT22;1717;50.240;8.406;2022-12-15T04:58:35;-0.60;99.90
3408;DHT22;1717;50.240;8.406;2022-12-15T05:01:21;-0.70;99.90
3408;DHT22;1717;50.240;8.406;2022-12-15T05:04:05;-0.60;99.90
3408;DHT22;1717;50.240;8.406;2022-12-15T05:06:49;-0.70;99.90
3408;DHT22;1717;50.240;8.406;2022-12-15T05:09:34;-0.70;99.90
3408;DHT22;1717;50.240;8.406;2022-12-15T05:12:18;-0.70;99.90
3408;DHT22;1717;50.240;8.406;2022-12-15T05:15:03;-0.70;99.90
3408;DHT22;1717;50.240;8.406;2022-12-15T05:17:49;-0.70;99.90
3408;DHT22;1717;50.240;8.406;2022-12-15T05:20:33;-0.70;99.90
3408;DHT22;1717;50.240;8.406;2022-12-15T05:23:18;-0.80;99.90
3408;DHT22;1717;50.240;8.406;2022-12-15T05:26:03;-0.80;99.90
3408;DHT22;1717;50.240;8.406;2022-12-15T05:28:47;-0.80;99.90
3408;DHT22;1717;50.240;8.406;2022-12-15T05:31:31;-0.90;99.90
3408;DHT22;1717;50.240;8.406;2022-12-15T05:34:19;-0.90;99.90
3408;DHT22;1717;50.240;8.406;2022-12-15T05:36:46;-0.90;99.90
3408;DHT22;1717;50.240;8.406;2022-12-15T05:39:13;-1.00;99.90
3408;DHT22;1717;50.240;8.406;2022-12-15T05:41:40;-1.10;99.90
3408;DHT22;1717;50.240;8.406;2022-12-15T05:44:07;-1.10;99.90
3408;DHT22;1717;50.240;8.406;2022-12-15T05:46:34;-1.10;99.90
3408;DHT22;1717;50.240;8.406;2022-12-15T05:49:02;-1.20;99.90
3408;DHT22;1717;50.240;8.406;2022-12-15T05:51:30;-1.20;99.90
3408;DHT22;1717;50.240;8.406;2022-12-15T05:53:57;-1.20;99.90
3408;DHT22;1717;50.240;8.406;2022-12-15T05:56:26;-1.20;99.90
3408;DHT22;1717;50.240;8.406;2022-12-15T05:58:54;-1.30;99.90
3408;DHT22;1717;50.240;8.406;2022-12-15T06:01:20;-1.30;99.90
3408;DHT22;1717;50.240;8.406;2022-12-15T06:03:47;-1.30;99.90
3408;DHT22;1717;50.240;8.406;2022-12-15T06:06:15;-1.30;99.90
3408;DHT22;1717;50.240;8.406;2022-12-15T06:08:43;-1.30;99.90
3408;DHT22;1717;50.240;8.406;2022-12-15T06:11:11;-1.30;99.90
3408;DHT22;1717;50.240;8.406;2022-12-15T06:13:39;-1.30;99.90
3408;DHT22;1717;50.240;8.406;2022-12-15T06:16:09;-1.30;99.90
3408;DHT22;1717;50.240;8.406;2022-12-15T06:18:38;-1.30;99.90
3408;DHT22;1717;50.240;8.406;2022-12-15T06:21:07;-1.30;99.90
3408;DHT22;1717;50.240;8.406;2022-12-15T06:23:34;-1.30;99.90
3408;DHT22;1717;50.240;8.406;2022-12-15T06:26:10;-1.30;99.90
3408;DHT22;1717;50.240;8.406;2022-12-15T06:28:38;-1.30;99.90
3408;DHT22;1717;50.240;8.406;2022-12-15T06:31:06;-1.40;99.90
3408;DHT22;1717;50.240;8.406;2022-12-15T06:33:34;-1.40;99.90
3408;DHT22;1717;50.240;8.406;2022-12-15T06:36:03;-1.40;99.90
3408;DHT22;1717;50.240;8.406;2022-12-15T06:38:30;-1.40;99.90
3408;DHT22;1717;50.240;8.406;2022-12-15T06:40:59;-1.40;99.90
3408;DHT22;1717;50.240;8.406;2022-12-15T06:43:28;-1.30;99.90
3408;DHT22;1717;50.240;8.406;2022-12-15T06:45:56;-1.40;99.90
3408;DHT22;1717;50.240;8.406;2022-12-15T06:48:23;-1.40;99.90
3408;DHT22;1717;50.240;8.406;2022-12-15T06:50:51;-1.40;99.90
3408;DHT22;1717;50.240;8.406;2022-12-15T06:53:19;-1.40;99.90
3408;DHT22;1717;50.240;8.406;2022-12-15T06:55:47;-1.40;99.90
3408;DHT22;1717;50.240;8.406;2022-12-15T06:58:14;-1.40;99.90
3408;DHT22;1717;50.240;8.406;2022-12-15T07:00:44;-1.50;99.90
3408;DHT22;1717;50.240;8.406;2022-12-15T07:03:13;-1.40;99.90
3408;DHT22;1717;50.240;8.406;2022-12-15T07:05:41;-1.40;99.90
3408;DHT22;1717;50.240;8.406;2022-12-15T07:08:09;-1.50;99.90
3408;DHT22;1717;50.240;8.406;2022-12-15T07:10:37;-1.50;99.90
3408;DHT22;1717;50.240;8.406;2022-12-15T07:13:05;-1.50;99.90
3408;DHT22;1717;50.240;8.406;2022-12-15T07:15:32;-1.40;99.90
3408;DHT22;1717;50.240;8.406;2022-12-15T07:18:02;-1.50;99.90
3408;DHT22;1717;50.240;8.406;2022-12-15T07:20:29;-1.50;99.90
3408;DHT22;1717;50.240;8.406;2022-12-15T07:22:56;-1.50;99.90
3408;DHT22;1717;50.240;8.406;2022-12-15T07:27:58;-1.50;99.90
3408;DHT22;1717;50.240;8.406;2022-12-15T07:30:24;-1.50;99.90
3408;DHT22;1717;50.240;8.406;2022-12-15T07:32:51;-1.50;99.90
3408;DHT22;1717;50.240;8.406;2022-12-15T07:35:20;-1.50;99.90
3408;DHT22;1717;50.240;8.406;2022-12-15T07:37:47;-1.50;99.90
3408;DHT22;1717;50.240;8.406;2022-12-15T07:40:14;-1.50;99.90
3408;DHT22;1717;50.240;8.406;2022-12-15T07:42:41;-1.50;99.90
3408;DHT22;1717;50.240;8.406;2022-12-15T07:45:08;-1.60;99.90
3408;DHT22;1717;50.240;8.406;2022-12-15T07:47:36;-1.60;99.90
3408;DHT22;1717;50.240;8.406;2022-12-15T07:50:04;-1.60;99.90
3408;DHT22;1717;50.240;8.406;2022-12-15T07:52:32;-1.60;99.90
3408;DHT22;1717;50.240;8.406;2022-12-15T07:54:59;-1.70;99.90
3408;DHT22;1717;50.240;8.406;2022-12-15T07:57:26;-1.60;99.90
3408;DHT22;1717;50.240;8.406;2022-12-15T07:59:53;-1.60;99.90
3408;DHT22;1717;50.240;8.406;2022-12-15T08:02:20;-1.70;99.90
3408;DHT22;1717;50.240;8.406;2022-12-15T08:04:47;-1.70;99.90
3408;DHT22;1717;50.240;8.406;2022-12-15T08:07:14;-1.70;99.90
3408;DHT22;1717;50.240;8.406;2022-12-15T08:09:43;-1.80;99.90
3408;DHT22;1717;50.240;8.406;2022-12-15T08:12:13;-1.80;99.90
3408;DHT22;1717;50.240;8.406;2022-12-15T08:14:41;-1.90;99.90
3408;DHT22;1717;50.240;8.406;2022-12-15T08:17:08;-1.90;99.90
3408;DHT22;1717;50.240;8.406;2022-12-15T08:19:36;-2.00;99.90
3408;DHT22;1717;50.240;8.406;2022-12-15T08:22:04;-2.00;99.90
3408;DHT22;1717;50.240;8.406;2022-12-15T08:24:31;-2.10;99.90
3408;DHT22;1717;50.240;8.406;2022-12-15T08:27:00;-2.10;99.90
3408;DHT22;1717;50.240;8.406;2022-12-15T08:29:27;-2.10;99.90
3408;DHT22;1717;50.240;8.406;2022-12-15T08:31:54;-2.10;99.90
3408;DHT22;1717;50.240;8.406;2022-12-15T08:34:21;-2.20;99.90
3408;DHT22;1717;50.240;8.406;2022-12-15T08:36:50;-2.20;99.90
3408;DHT22;1717;50.240;8.406;2022-12-15T08:39:17;-2.20;99.90
3408;DHT22;1717;50.240;8.406;2022-12-15T08:41:45;-2.20;99.90
3408;DHT22;1717;50.240;8.406;2022-12-15T08:44:14;-2.30;99.90
3408;DHT22;1717;50.240;8.406;2022-12-15T08:46:43;-2.30;99.90
3408;DHT22;1717;50.240;8.406;2022-12-15T08:49:10;-2.30;99.90
3408;DHT22;1717;50.240;8.406;2022-12-15T08:51:38;-2.30;99.90
3408;DHT22;1717;50.240;8.406;2022-12-15T08:54:05;-2.20;99.90
3408;DHT22;1717;50.240;8.406;2022-12-15T08:56:32;-2.20;99.90
3408;DHT22;1717;50.240;8.406;2022-12-15T08:59:01;-2.30;99.90
3408;DHT22;1717;50.240;8.406;2022-12-15T09:01:31;-2.20;99.90
3408;DHT22;1717;50.240;8.406;2022-12-15T09:04:04;-2.30;99.90
3408;DHT22;1717;50.240;8.406;2022-12-15T09:06:33;-2.30;99.90
3408;DHT22;1717;50.240;8.406;2022-12-15T09:09:03;-2.30;99.90
3408;DHT22;1717;50.240;8.406;2022-12-15T09:11:33;-2.30;99.90
3408;DHT22;1717;50.240;8.406;2022-12-15T09:14:01;-2.30;99.90
3408;DHT22;1717;50.240;8.406;2022-12-15T09:16:30;-2.20;99.90
3408;DHT22;1717;50.240;8.406;2022-12-15T09:18:58;-2.20;99.90
3408;DHT22;1717;50.240;8.406;2022-12-15T09:21:28;-2.30;99.90
3408;DHT22;1717;50.240;8.406;2022-12-15T09:23:58;-2.30;99.90
3408;DHT22;1717;50.240;8.406;2022-12-15T09:26:27;-2.30;99.90
3408;DHT22;1717;50.240;8.406;2022-12-15T09:28:55;-2.30;99.90
3408;DHT22;1717;50.240;8.406;2022-12-15T09:31:24;-2.30;99.90
3408;DHT22;1717;50.240;8.406;2022-12-15T09:33:55;-2.20;99.90
3408;DHT22;1717;50.240;8.406;2022-12-15T09:36:24;-2.20;99.90
3408;DHT22;1717;50.240;8.406;2022-12-15T09:38:52;-2.20;99.90
3408;DHT22;1717;50.240;8.406;2022-12-15T09:41:21;-2.20;99.90
3408;DHT22;1717;50.240;8.406;2022-12-15T09:43:54;-2.20;99.90
3408;DHT22;1717;50.240;8.406;2022-12-15T09:46:29;-2.20;99.90
3408;DHT22;1717;50.240;8.406;2022-12-15T09:49:03;-2.20;99.90
3408;DHT22;1717;50.240;8.406;2022-12-15T09:51:37;-2.20;99.90
3408;DHT22;1717;50.240;8.406;2022-12-15T09:54:06;-2.10;99.90
3408;DHT22;1717;50.240;8.406;2022-12-15T09:56:40;-2.10;99.90
3408;DHT22;1717;50.240;8.406;2022-12-15T09:59:18;-2.10;99.90
3408;DHT22;1717;50.240;8.406;2022-12-15T10:01:55;-2.10;99.90
3408;DHT22;1717;50.240;8.406;2022-12-15T10:04:33;-2.10;99.90
3408;DHT22;1717;50.240;8.406;2022-12-15T10:07:07;-2.10;99.90
3408;DHT22;1717;50.240;8.406;2022-12-15T10:09:36;-2.00;99.90
3408;DHT22;1717;50.240;8.406;2022-12-15T10:12:08;-2.00;99.90
3408;DHT22;1717;50.240;8.406;2022-12-15T10:14:40;-2.00;99.90
3408;DHT22;1717;50.240;8.406;2022-12-15T10:17:18;-2.00;99.90
3408;DHT22;1717;50.240;8.406;2022-12-15T10:19:54;-2.00;99.90
3408;DHT22;1717;50.240;8.406;2022-12-15T10:22:29;-1.90;99.90
3408;DHT22;1717;50.240;8.406;2022-12-15T10:24:58;-2.00;99.90
3408;DHT22;1717;50.240;8.406;2022-12-15T10:27:44;-1.90;99.90
3408;DHT22;1717;50.240;8.406;2022-12-15T10:30:16;-1.90;99.90
3408;DHT22;1717;50.240;8.406;2022-12-15T10:32:48;-2.00;99.90
3408;DHT22;1717;50.240;8.406;2022-12-15T10:35:21;-2.00;99.90
3408;DHT22;1717;50.240;8.406;2022-12-15T10:37:49;-1.90;99.90
3408;DHT22;1717;50.240;8.406;2022-12-15T10:40:19;-1.90;99.90
3408;DHT22;1717;50.240;8.406;2022-12-15T10:42:47;-1.90;99.90
3408;DHT22;1717;50.240;8.406;2022-12-15T10:45:34;-1.90;99.90
3408;DHT22;1717;50.240;8.406;2022-12-15T10:48:04;-1.90;99.90
3408;DHT22;1717;50.240;8.406;2022-12-15T10:50:33;-1.90;99.90
3408;DHT22;1717;50.240;8.406;2022-12-15T10:53:07;-1.90;99.90
3408;DHT22;1717;50.240;8.406;2022-12-15T10:55:37;-1.90;99.90
3408;DHT22;1717;50.240;8.406;2022-12-15T10:58:15;-1.80;99.90
3408;DHT22;1717;50.240;8.406;2022-12-15T11:00:43;-1.80;99.90
3408;DHT22;1717;50.240;8.406;2022-12-15T11:03:23;-1.80;99.90
3408;DHT22;1717;50.240;8.406;2022-12-15T11:05:54;-1.80;99.90
3408;DHT22;1717;50.240;8.406;2022-12-15T11:08:24;-1.80;99.90
3408;DHT22;1717;50.240;8.406;2022-12-15T11:10:54;-1.80;99.90
3408;DHT22;1717;50.240;8.406;2022-12-15T11:13:38;-1.70;99.90
3408;DHT22;1717;50.240;8.406;2022-12-15T11:16:16;-1.70;99.90
3408;DHT22;1717;50.240;8.406;2022-12-15T11:18:48;-1.70;99.90
3408;DHT22;1717;50.240;8.406;2022-12-15T11:21:21;-1.70;99.90
3408;DHT22;1717;50.240;8.406;2022-12-15T11:23:57;-1.60;99.90
3408;DHT22;1717;50.240;8.406;2022-12-15T11:26:42;-1.60;99.90
3408;DHT22;1717;50.240;8.406;2022-12-15T11:29:22;-1.60;99.90
3408;DHT22;1717;50.240;8.406;2022-12-15T11:31:51;-1.60;99.90
3408;DHT22;1717;50.240;8.406;2022-12-15T11:34:20;-1.50;99.90
3408;DHT22;1717;50.240;8.406;2022-12-15T11:37:08;-1.50;99.90
3408;DHT22;1717;50.240;8.406;2022-12-15T11:39:48;-1.50;99.90
3408;DHT22;1717;50.240;8.406;2022-12-15T11:42:26;-1.50;99.90
3408;DHT22;1717;50.240;8.406;2022-12-15T11:45:01;-1.50;99.90
3408;DHT22;1717;50.240;8.406;2022-12-15T11:47:34;-1.40;99.90
3408;DHT22;1717;50.240;8.406;2022-12-15T11:50:19;-1.40;99.90
3408;DHT22;1717;50.240;8.406;2022-12-15T11:53:14;-1.40;99.90
3408;DHT22;1717;50.240;8.406;2022-12-15T11:55:50;-1.40;99.90
3408;DHT22;1717;50.240;8.406;2022-12-15T11:58:57;-1.30;99.90
3408;DHT22;1717;50.240;8.406;2022-12-15T12:01:52;-1.30;99.90
3408;DHT22;1717;50.240;8.406;2022-12-15T12:04:27;-1.30;99.90
3408;DHT22;1717;50.240;8.406;2022-12-15T12:07:05;-1.30;99.90
3408;DHT22;1717;50.240;8.406;2022-12-15T12:09:41;-1.20;99.90
3408;DHT22;1717;50.240;8.406;2022-12-15T12:12:17;-1.20;99.90
3408;DHT22;1717;50.240;8.406;2022-12-15T12:14:56;-1.20;99.90
3408;DHT22;1717;50.240;8.406;2022-12-15T12:17:35;-1.20;99.90
3408;DHT22;1717;50.240;8.406;2022-12-15T12:20:13;-1.10;99.90
3408;DHT22;1717;50.240;8.406;2022-12-15T12:22:48;-1.10;99.90
3408;DHT22;1717;50.240;8.406;2022-12-15T12:25:21;-1.00;99.90
3408;DHT22;1717;50.240;8.406;2022-12-15T12:27:54;-1.00;99.90
3408;DHT22;1717;50.240;8.406;2022-12-15T12:30:23;-1.00;99.90
3408;DHT22;1717;50.240;8.406;2022-12-15T12:32:59;-1.00;99.90
3408;DHT22;1717;50.240;8.406;2022-12-15T12:35:35;-0.90;99.90
3408;DHT22;1717;50.240;8.406;2022-12-15T12:38:04;-0.90;99.90
3408;DHT22;1717;50.240;8.406;2022-12-15T12:40:44;-0.80;99.90
3408;DHT22;1717;50.240;8.406;2022-12-15T12:43:21;-0.80;99.90
3408;DHT22;1717;50.240;8.406;2022-12-15T12:45:55;-0.80;99.90
3408;DHT22;1717;50.240;8.406;2022-12-15T12:48:28;-0.70;99.90
3408;DHT22;1717;50.240;8.406;2022-12-15T12:51:11;-0.70;99.90
3408;DHT22;1717;50.240;8.406;2022-12-15T12:53:39;-0.70;99.90
3408;DHT22;1717;50.240;8.406;2022-12-15T12:59:32;-0.60;99.90
3408;DHT22;1717;50.240;8.406;2022-12-15T13:05:30;-0.60;99.90
3408;DHT22;1717;50.240;8.406;2022-12-15T13:08:27;-0.60;99.90
3408;DHT22;1717;50.240;8.406;2022-12-15T13:10:56;-0.60;99.90
3408;DHT22;1717;50.240;8.406;2022-12-15T13:13:46;-0.60;99.90
3408;DHT22;1717;50.240;8.406;2022-12-15T13:16:20;-0.60;99.90
3408;DHT22;1717;50.240;8.406;2022-12-15T13:18:59;-0.60;99.90
3408;DHT22;1717;50.240;8.406;2022-12-15T13:22:01;-0.60;99.90
3408;DHT22;1717;50.240;8.406;2022-12-15T13:24:32;-0.60;99.90
3408;DHT22;1717;50.240;8.406;2022-12-15T13:27:04;-0.60;99.90
3408;DHT22;1717;50.240;8.406;2022-12-15T13:29:34;-0.50;99.90
3408;DHT22;1717;50.240;8.406;2022-12-15T13:32:03;-0.50;99.90
3408;DHT22;1717;50.240;8.406;2022-12-15T13:34:36;-0.60;99.90
3408;DHT22;1717;50.240;8.406;2022-12-15T13:37:43;-0.60;99.90
3408;DHT22;1717;50.240;8.406;2022-12-15T13:40:26;-0.60;99.90
3408;DHT22;1717;50.240;8.406;2022-12-15T13:42:59;-0.60;99.90
3408;DHT22;1717;50.240;8.406;2022-12-15T13:45:47;-0.60;99.90
3408;DHT22;1717;50.240;8.406;2022-12-15T13:48:30;-0.40;99.90
3408;DHT22;1717;50.240;8.406;2022-12-15T13:51:17;-0.50;99.90
3408;DHT22;1717;50.240;8.406;2022-12-15T13:53:52;-0.50;99.90
3408;DHT22;1717;50.240;8.406;2022-12-15T13:56:48;-0.50;99.90
3408;DHT22;1717;50.240;8.406;2022-12-15T13:59:33;-0.50;99.90
3408;DHT22;1717;50.240;8.406;2022-12-15T14:02:22;-0.40;99.90
3408;DHT22;1717;50.240;8.406;2022-12-15T14:05:06;-0.40;99.90
3408;DHT22;1717;50.240;8.406;2022-12-15T14:07:40;-0.40;99.90
3408;DHT22;1717;50.240;8.406;2022-12-15T14:10:18;-0.40;99.90
3408;DHT22;1717;50.240;8.406;2022-12-15T14:12:49;-0.40;99.90
3408;DHT22;1717;50.240;8.406;2022-12-15T14:15:19;-0.40;99.90
3408;DHT22;1717;50.240;8.406;2022-12-15T14:17:53;-0.50;99.90
3408;DHT22;1717;50.240;8.406;2022-12-15T14:20:29;-0.50;99.90
3408;DHT22;1717;50.240;8.406;2022-12-15T14:22:59;-0.50;99.90
3408;DHT22;1717;50.240;8.406;2022-12-15T14:25:28;-0.50;99.90
3408;DHT22;1717;50.240;8.406;2022-12-15T14:27:57;-0.50;99.90
3408;DHT22;1717;50.240;8.406;2022-12-15T14:30:27;-0.60;99.90
3408;DHT22;1717;50.240;8.406;2022-12-15T14:33:00;-0.60;99.90
3408;DHT22;1717;50.240;8.406;2022-12-15T14:35:31;-0.60;99.90
3408;DHT22;1717;50.240;8.406;2022-12-15T14:38:03;-0.70;99.90
3408;DHT22;1717;50.240;8.406;2022-12-15T14:40:33;-0.70;99.90
3408;DHT22;1717;50.240;8.406;2022-12-15T14:43:03;-0.70;99.90
3408;DHT22;1717;50.240;8.406;2022-12-15T14:45:32;-0.80;99.90
3408;DHT22;1717;50.240;8.406;2022-12-15T14:48:06;-0.80;99.90
3408;DHT22;1717;50.240;8.406;2022-12-15T14:50:36;-0.80;99.90
3408;DHT22;1717;50.240;8.406;2022-12-15T14:53:11;-1.10;99.90
3408;DHT22;1717;50.240;8.406;2022-12-15T14:55:41;-0.90;99.90
3408;DHT22;1717;50.240;8.406;2022-12-15T14:58:26;-1.00;99.90
3408;DHT22;1717;50.240;8.406;2022-12-15T15:00:56;-1.00;99.90
3408;DHT22;1717;50.240;8.406;2022-12-15T15:03:34;-1.00;99.90
3408;DHT22;1717;50.240;8.406;2022-12-15T15:06:09;-1.10;99.90
3408;DHT22;1717;50.240;8.406;2022-12-15T15:08:46;-1.10;99.90
3408;DHT22;1717;50.240;8.406;2022-12-15T15:11:23;-1.10;99.90
3408;DHT22;1717;50.240;8.406;2022-12-15T15:13:57;-1.10;99.90
3408;DHT22;1717;50.240;8.406;2022-12-15T15:16:26;-1.20;99.90
3408;DHT22;1717;50.240;8.406;2022-12-15T15:18:55;-1.00;99.90
3408;DHT22;1717;50.240;8.406;2022-12-15T15:21:27;-1.30;99.90
3408;DHT22;1717;50.240;8.406;2022-12-15T15:24:00;-1.30;99.90
3408;DHT22;1717;50.240;8.406;2022-12-15T15:26:29;-1.30;99.90
3408;DHT22;1717;50.240;8.406;2022-12-15T15:28:57;-1.40;99.90
3408;DHT22;1717;50.240;8.406;2022-12-15T15:31:28;-1.40;99.90
3408;DHT22;1717;50.240;8.406;2022-12-15T15:34:00;-1.50;99.90
3408;DHT22;1717;50.240;8.406;2022-12-15T15:36:31;-1.40;99.90
3408;DHT22;1717;50.240;8.406;2022-12-15T15:39:00;-1.50;99.90
3408;DHT22;1717;50.240;8.406;2022-12-15T15:41:30;-1.20;99.90
3408;DHT22;1717;50.240;8.406;2022-12-15T15:43:59;-1.50;99.90
3408;DHT22;1717;50.240;8.406;2022-12-15T15:46:29;-1.50;99.90
3408;DHT22;1717;50.240;8.406;2022-12-15T15:49:01;-1.50;99.90
3408;DHT22;1717;50.240;8.406;2022-12-15T15:51:32;-1.50;99.90
3408;DHT22;1717;50.240;8.406;2022-12-15T15:54:04;-1.50;99.90
3408;DHT22;1717;50.240;8.406;2022-12-15T15:56:34;-1.60;99.90
3408;DHT22;1717;50.240;8.406;2022-12-15T15:59:10;-1.60;99.90
3408;DHT22;1717;50.240;8.406;2022-12-15T16:01:39;-1.60;99.90
3408;DHT22;1717;50.240;8.406;2022-12-15T16:04:08;-1.70;99.90
3408;DHT22;1717;50.240;8.406;2022-12-15T16:06:37;-1.70;99.90
3408;DHT22;1717;50.240;8.406;2022-12-15T16:09:05;-1.70;99.90
3408;DHT22;1717;50.240;8.406;2022-12-15T16:11:34;-1.80;99.90
3408;DHT22;1717;50.240;8.406;2022-12-15T16:14:05;-1.80;99.90
3408;DHT22;1717;50.240;8.406;2022-12-15T16:16:32;-1.80;99.90
3408;DHT22;1717;50.240;8.406;2022-12-15T16:19:01;-1.80;99.90
3408;DHT22;1717;50.240;8.406;2022-12-15T16:21:30;-1.80;99.90
3408;DHT22;1717;50.240;8.406;2022-12-15T16:23:58;-1.80;99.90
3408;DHT22;1717;50.240;8.406;2022-12-15T16:26:29;-1.80;99.90
3408;DHT22;1717;50.240;8.406;2022-12-15T16:28:57;-1.80;99.90
3408;DHT22;1717;50.240;8.406;2022-12-15T16:31:28;-1.90;99.90
3408;DHT22;1717;50.240;8.406;2022-12-15T16:33:56;-1.80;99.90
3408;DHT22;1717;50.240;8.406;2022-12-15T16:36:25;-1.80;99.90
3408;DHT22;1717;50.240;8.406;2022-12-15T16:38:56;-1.90;99.90
3408;DHT22;1717;50.240;8.406;2022-12-15T16:41:25;-1.80;99.90
3408;DHT22;1717;50.240;8.406;2022-12-15T16:43:54;-1.90;99.90
3408;DHT22;1717;50.240;8.406;2022-12-15T16:46:23;-1.80;99.90
3408;DHT22;1717;50.240;8.406;2022-12-15T16:48:52;-1.80;99.90
3408;DHT22;1717;50.240;8.406;2022-12-15T16:51:35;-1.90;99.90
3408;DHT22;1717;50.240;8.406;2022-12-15T16:54:06;-1.90;99.90
3408;DHT22;1717;50.240;8.406;2022-12-15T16:56:35;-1.90;99.90
3408;DHT22;1717;50.240;8.406;2022-12-15T16:59:03;-1.90;99.90